Terminal Aerodrome Forecast
Issued by NWS

Home | Current Version | Previous Version | Graphics & Text | Print | Product List | Glossary On
Versions: 1 2 3 4 5 6 7 8 9 10 11 12 13 14 15 16
064
FTUS42 KMHX 251120
TAFOAJ
TAF
KOAJ 251120Z 2512/2612 02005KT 4SM BR OVC029
     FM251400 05008KT P6SM BKN035
     FM251800 04006KT P6SM VCSH BKN035
     FM252300 04004KT P6SM SCT035
      AMD LTD TO CLD VIS AND WIND=

USA.gov is the U.S. government's official web portal to all federal, state and local government web resources and services.